Seafrance Rodin — FOBQ — position and weather

sailwx.info

Track history (hours):
 
Tides and Currents Weather Stations Pressure Air Temp Water Temp Dewpoint Dewpoint Depression Visibility Wind Speed Wind Dir Waves Ship Positions

Seafrance Rodin

Operator: SeaFrance

Last reported at 2019-Mar-22 11:30 UTC. Time now 2019-Mar-22 11:59 UTC.
Position N 50°59' E 001°37'.

Length 185 m; draft 6 m.

Type: Ship (hazmat cat A). MMSI: 227022800.

Date/timePositionNaut miles runAvg speedWind from/ knotsBaromVisibWave heightAir tempDewpointWater temp
2019-Mar-22 11:30N 50°59' E 001°37'1019.4
2019-Mar-22 11:00N 51°05' E 001°25'4 7.3
2019-Mar-22 10:27N 51°07' E 001°20'0 0.1
2019-Mar-22 09:47N 51°07' E 001°20'2 8.7
2019-Mar-22 09:31N 51°07' E 001°24'816.8
2019-Mar-22 09:01N 51°02' E 001°35'816.8
2019-Mar-22 08:31N 50°58' E 001°46'3 5.7
2019-Mar-22 08:00N 50°58' E 001°51'0 0.0
2019-Mar-22 07:30N 50°58' E 001°51'3 6.3
2019-Mar-22 07:00N 50°58' E 001°46'714.3
2019-Mar-22 06:31N 51°01' E 001°36'816.1
2019-Mar-22 06:00N 51°05' E 001°25'4 3.3
2019-Mar-22 04:52N 51°07' E 001°20'617.6
2019-Mar-22 04:30N 51°06' E 001°30'817.0
2019-Mar-22 04:00N 50°60' E 001°39'815.2
2019-Mar-22 03:31N 50°58' E 001°51'0 0.3
2019-Mar-22 03:00N 50°58' E 001°51'0 0.5
2019-Mar-22 02:30N 50°58' E 001°51'611.9
2019-Mar-22 02:00N 50°58' E 001°41'917.3
2019-Mar-22 01:30N 51°02' E 001°29'8 5.7
2019-Mar-22 00:09N 51°07' E 001°20'211.4
2019-Mar-22 00:01N 51°07' E 001°23'917.9
2019-Mar-21 23:31N 51°02' E 001°35'917.3
2019-Mar-21 23:01N 50°58' E 001°47'3 5.2
2019-Mar-21 22:30N 50°58' E 001°51'0 0.0
2019-Mar-21 22:00N 50°58' E 001°51'2 3.4
2019-Mar-21 21:30N 50°58' E 001°48'612.3
2019-Mar-21 21:01N 50°59' E 001°39'918.6
2019-Mar-21 20:30N 51°04' E 001°27'5 3.5
2019-Mar-21 19:06N 51°07' E 001°20'110.9
2019-Mar-21 18:59N 51°07' E 001°22'919.2
2019-Mar-21 18:30N 51°03' E 001°35'1019.0
2019-Mar-21 18:00N 50°58' E 001°48'2 3.6
2019-Mar-21 17:30N 50°58' E 001°51'0 0.0
2019-Mar-21 17:00N 50°58' E 001°51'2 3.9
2019-Mar-21 16:31N 50°58' E 001°48'816.2
2019-Mar-21 16:00N 51°01' E 001°36'1019.2
2019-Mar-21 15:31N 51°06' E 001°23'2 2.7
2019-Mar-21 14:41N 51°07' E 001°20'0 0.3
2019-Mar-21 14:19N 51°07' E 001°20'515.1
2019-Mar-21 14:00N 51°06' E 001°27'918.8
2019-Mar-21 13:30N 51°01' E 001°40'714.9
2019-Mar-21 13:00N 50°58' E 001°51'0 0.4
2019-Mar-21 12:30N 50°58' E 001°51'0 0.0
2019-Mar-21 12:00N 50°58' E 001°51'510.9
2019-Mar-21 11:30N 50°58' E 001°42'1019.3
2019-Mar-21 11:01N 51°03' E 001°29'7 5.4
2019-Mar-21 09:41N 51°07' E 001°20'314.4
2019-Mar-21 09:30N 51°07' E 001°24'918.6
2019-Mar-21 09:00N 51°02' E 001°37'816.5
2019-Mar-21 08:31N 50°58' E 001°49'1 2.8
2019-Mar-21 08:00N 50°58' E 001°51'0 0.0
2019-Mar-21 07:30N 50°58' E 001°51'3 6.3
2019-Mar-21 07:00N 50°58' E 001°46'815.4
2019-Mar-21 06:31N 51°01' E 001°35'917.6
2019-Mar-21 06:01N 51°06' E 001°23'2 1.8
2019-Mar-21 04:50N 51°07' E 001°21'516.5
2019-Mar-21 04:30N 51°06' E 001°29'816.4
2019-Mar-21 04:01N 51°01' E 001°39'815.5
2019-Mar-21 03:30N 50°58' E 001°51'0 0.7
2019-Mar-21 03:01N 50°58' E 001°51'0 0.0
2019-Mar-21 02:31N 50°58' E 001°51'3 6.6
2019-Mar-21 02:00N 50°58' E 001°46'714.4
2019-Mar-21 01:30N 51°00' E 001°35'917.5
2019-Mar-21 01:01N 51°06' E 001°24'3 2.5
2019-Mar-20 23:50N 51°07' E 001°20'411.8
2019-Mar-20 23:30N 51°06' E 001°26'917.9
2019-Mar-20 23:00N 51°02' E 001°38'815.5
2019-Mar-20 22:30N 50°58' E 001°49'1 2.3
2019-Mar-20 22:00N 50°58' E 001°51'0 0.0
2019-Mar-20 21:30N 50°58' E 001°51'510.4
2019-Mar-20 21:01N 50°58' E 001°43'917.7
2019-Mar-20 20:30N 51°02' E 001°30'8 5.5
2019-Mar-20 19:01N 51°07' E 001°20'917.1
2019-Mar-20 18:30N 51°03' E 001°33'918.6
2019-Mar-20 18:01N 50°58' E 001°45'4 7.9
2019-Mar-20 17:30N 50°58' E 001°51'0 0.0
2019-Mar-20 17:01N 50°58' E 001°51'1 2.3
2019-Mar-20 16:31N 50°58' E 001°49'713.5
2019-Mar-20 16:01N 50°59' E 001°39'816.9
2019-Mar-20 15:31N 51°04' E 001°28'6 4.1
2019-Mar-20 14:09N 51°07' E 001°21'215.8
2019-Mar-20 14:01N 51°07' E 001°24'918.6
2019-Mar-20 13:30N 51°03' E 001°38'917.0
2019-Mar-20 13:00N 50°58' E 001°49'1 2.5
2019-Mar-20 12:30N 50°58' E 001°51'0 0.0
2019-Mar-20 12:00N 50°58' E 001°51'712.8
2019-Mar-20 11:30N 50°58' E 001°41'918.5
2019-Mar-20 11:01N 51°03' E 001°29'7 5.3
2019-Mar-20 09:44N 51°07' E 001°20'2 8.6
2019-Mar-20 09:30N 51°07' E 001°23'918.7
2019-Mar-20 09:00N 51°03' E 001°36'917.6
2019-Mar-20 08:30N 50°58' E 001°48'2 3.2
2019-Mar-20 08:00N 50°58' E 001°51'0 0.0
2019-Mar-20 07:30N 50°58' E 001°51'3 6.8
2019-Mar-20 07:00N 50°58' E 001°46'815.2
2019-Mar-20 06:31N 50°60' E 001°34'917.1
2019-Mar-20 06:01N 51°06' E 001°24'3 3.6
2019-Mar-20 05:09N 51°07' E 001°20'0 0.4
2019-Mar-20 04:44N 51°07' E 001°20'312.3
2019-Mar-20 04:30N 51°07' E 001°25'816.1
2019-Mar-20 04:00N 51°02' E 001°35'815.9
2019-Mar-20 03:30N 50°58' E 001°46'3 5.8
2019-Mar-20 03:00N 50°58' E 001°51'0 0.0
2019-Mar-20 02:30N 50°58' E 001°51'1 2.6
2019-Mar-20 02:00N 50°58' E 001°49'816.1
2019-Mar-20 01:30N 51°00' E 001°37'917.0
2019-Mar-20 01:00N 51°05' E 001°25'4 3.1
2019-Mar-19 23:43N 51°07' E 001°20'210.5
2019-Mar-19 23:30N 51°07' E 001°24'918.6
2019-Mar-19 23:00N 51°02' E 001°36'815.6
2019-Mar-19 22:31N 50°58' E 001°47'3 5.1
2019-Mar-19 22:00N 50°58' E 001°51'0 0.4
2019-Mar-19 21:30N 50°58' E 001°51'917.9
2019-Mar-19 21:01N 50°60' E 001°37'1019.8
2019-Mar-19 20:31N 51°05' E 001°24'3 2.7
2019-Mar-19 19:23N 51°07' E 001°20'617.0
2019-Mar-19 19:00N 51°05' E 001°30'1019.6
2019-Mar-19 18:31N 50°59' E 001°43'510.9
2019-Mar-19 18:00N 50°58' E 001°51'0 0.0
2019-Mar-19 17:30N 50°58' E 001°51'0 1.0
2019-Mar-19 17:01N 50°58' E 001°50'816.3
2019-Mar-19 16:30N 50°59' E 001°37'918.8
2019-Mar-19 16:01N 51°05' E 001°26'4 8.8
2019-Mar-19 15:30N 51°07' E 001°20'0 0.1
2019-Mar-19 14:11N 51°07' E 001°20'315.8
2019-Mar-19 14:00N 51°07' E 001°25'918.1
2019-Mar-19 13:30N 51°03' E 001°37'917.1
2019-Mar-19 13:00N 50°58' E 001°49'1 2.9
2019-Mar-19 12:30N 50°58' E 001°51'0 0.3
2019-Mar-19 12:01N 50°58' E 001°51'713.3
2019-Mar-19 11:30N 50°58' E 001°40'1019.9
2019-Mar-19 11:00N 51°04' E 001°27'6 4.1
2019-Mar-19 09:38N 51°07' E 001°20'1 9.6
2019-Mar-19 09:29N 51°07' E 001°22'816.9
2019-Mar-19 09:01N 51°04' E 001°34'917.9
2019-Mar-19 08:31N 50°58' E 001°45'4 7.6
2019-Mar-19 08:00N 50°58' E 001°51'0 0.0
2019-Mar-19 07:31N 50°58' E 001°51'3 6.7
2019-Mar-19 07:00N 50°58' E 001°46'815.4
2019-Mar-19 06:30N 50°59' E 001°34'816.1
2019-Mar-19 06:00N 51°05' E 001°25'4 3.1
2019-Mar-19 04:44N 51°07' E 001°20'314.6
2019-Mar-19 04:30N 51°07' E 001°25'917.1
2019-Mar-19 04:01N 51°02' E 001°37'816.2
2019-Mar-19 03:31N 50°58' E 001°48'2 3.5
2019-Mar-19 03:00N 50°58' E 001°51'0 0.0
2019-Mar-19 02:30N 50°58' E 001°51'1 2.9
2019-Mar-19 02:00N 50°58' E 001°49'816.1
2019-Mar-19 01:30N 50°58' E 001°36'816.8
2019-Mar-19 01:00N 51°04' E 001°26'5 3.8
2019-Mar-18 23:41N 51°07' E 001°20'210.7
2019-Mar-18 23:31N 51°07' E 001°23'714.9
2019-Mar-18 23:01N 51°05' E 001°34'816.4
2019-Mar-18 22:31N 50°59' E 001°44'5 9.3
2019-Mar-18 22:00N 50°58' E 001°51'0 0.0
2019-Mar-18 21:30N 50°58' E 001°51'4 7.8
2019-Mar-18 21:00N 50°58' E 001°45'917.1
2019-Mar-18 20:30N 51°02' E 001°33'917.4
2019-Mar-18 20:00N 51°07' E 001°22'1 0.9
2019-Mar-18 18:57N 51°07' E 001°20'715.8
2019-Mar-18 18:30N 51°05' E 001°31'918.0
2019-Mar-18 18:00N 50°60' E 001°42'612.0
2019-Mar-18 17:30N 50°58' E 001°51'0 0.0
2019-Mar-18 17:00N 50°58' E 001°51'1 2.2
2019-Mar-18 16:30N 50°58' E 001°49'815.6
2019-Mar-18 16:00N 50°59' E 001°37'816.3
2019-Mar-18 15:31N 51°04' E 001°27'6 5.7
2019-Mar-18 14:33N 51°07' E 001°20'0 0.3
2019-Mar-18 14:15N 51°07' E 001°20'310.9
2019-Mar-18 14:00N 51°07' E 001°24'917.9
2019-Mar-18 13:30N 51°02' E 001°37'817.0
2019-Mar-18 13:00N 50°58' E 001°49'2 3.1
2019-Mar-18 12:30N 50°58' E 001°51'0 0.0
2019-Mar-18 12:00N 50°58' E 001°51'612.6
2019-Mar-18 11:30N 50°58' E 001°41'918.0
2019-Mar-18 11:00N 51°03' E 001°29'7 5.0
2019-Mar-18 09:38N 51°07' E 001°20'1 9.6
2019-Mar-18 09:30N 51°07' E 001°22'917.7
2019-Mar-18 09:01N 51°02' E 001°34'917.4
2019-Mar-18 08:30N 50°58' E 001°46'3 6.3
2019-Mar-18 08:00N 50°58' E 001°51'0 0.0
2019-Mar-18 07:30N 50°58' E 001°51'4 7.5
2019-Mar-18 07:00N 50°58' E 001°45'815.1
2019-Mar-18 06:31N 50°59' E 001°33'816.4
2019-Mar-18 06:00N 51°05' E 001°24'4 2.9
2019-Mar-18 04:48N 51°07' E 001°20'414.1
2019-Mar-18 04:31N 51°06' E 001°26'816.1
2019-Mar-18 04:00N 51°01' E 001°37'816.8
2019-Mar-18 03:31N 50°58' E 001°49'1 2.4
2019-Mar-18 03:00N 50°58' E 001°51'0 0.0
2019-Mar-18 02:30N 50°58' E 001°51'2 3.8
2019-Mar-18 02:00N 50°58' E 001°48'715.0
2019-Mar-18 01:30N 50°59' E 001°36'817.0
2019-Mar-18 01:01N 51°05' E 001°26'5 3.6
2019-Mar-17 23:44N 51°07' E 001°20'312.2
2019-Mar-17 23:30N 51°07' E 001°24'816.2
2019-Mar-17 23:01N 51°02' E 001°35'816.2
2019-Mar-17 22:30N 50°58' E 001°46'3 6.2
2019-Mar-17 22:00N 50°58' E 001°51'0 0.0
2019-Mar-17 21:30N 50°58' E 001°51'611.5
2019-Mar-17 21:00N 50°58' E 001°42'918.8
2019-Mar-17 20:31N 51°02' E 001°28'7 6.2
2019-Mar-17 19:20N 51°07' E 001°20'411.3
2019-Mar-17 19:01N 51°07' E 001°26'815.7
2019-Mar-17 18:31N 51°02' E 001°36'612.0
2019-Mar-17 18:01N 50°59' E 001°44'5 9.1
2019-Mar-17 17:30N 50°58' E 001°51'0 0.0
2019-Mar-17 17:00N 50°58' E 001°51'1 2.0
2019-Mar-17 16:30N 50°58' E 001°49'714.5
2019-Mar-17 16:00N 50°59' E 001°38'815.8
2019-Mar-17 15:30N 51°03' E 001°27'6 4.7
2019-Mar-17 14:12N 51°07' E 001°20'211.9
2019-Mar-17 14:01N 51°07' E 001°24'918.5
2019-Mar-17 13:30N 51°02' E 001°36'816.1
2019-Mar-17 13:01N 50°58' E 001°48'2 4.3
2019-Mar-17 12:31N 50°58' E 001°51'0 0.0
2019-Mar-17 12:00N 50°58' E 001°51'510.0
2019-Mar-17 11:30N 50°58' E 001°43'917.9
2019-Mar-17 11:00N 51°03' E 001°31'8 6.1
2019-Mar-17 09:40N 51°07' E 001°20'211.8
2019-Mar-17 09:31N 51°07' E 001°23'917.5
2019-Mar-17 09:00N 51°03' E 001°36'817.0
2019-Mar-17 08:30N 50°58' E 001°46'3 5.8
2019-Mar-17 08:01N 50°58' E 001°51'0 0.0
2019-Mar-17 07:31N 50°58' E 001°51'0 0.0
2019-Mar-17 07:01N 50°58' E 001°51'0 0.0
2019-Mar-17 06:30N 50°58' E 001°51'0 0.0
2019-Mar-17 06:01N 50°58' E 001°51'0 0.0
2019-Mar-17 05:30N 50°58' E 001°51'0 0.0
2019-Mar-17 05:00N 50°58' E 001°51'0 0.0
2019-Mar-17 04:30N 50°58' E 001°51'0 0.0
2019-Mar-17 04:01N 50°58' E 001°51'0 0.0
2019-Mar-17 03:30N 50°58' E 001°51'0 0.0
2019-Mar-17 03:01N 50°58' E 001°51'0 0.0
2019-Mar-17 02:31N 50°58' E 001°51'0 0.0
2019-Mar-17 02:00N 50°58' E 001°51'0 0.1
2019-Mar-17 01:30N 50°58' E 001°51'0 0.0
2019-Mar-17 01:00N 50°58' E 001°51'0 0.0
2019-Mar-17 00:31N 50°58' E 001°51'713.4
2019-Mar-17 00:00N 50°58' E 001°40'816.9
2019-Mar-16 23:31N 51°03' E 001°29'7 3.7
2019-Mar-16 21:39N 51°07' E 001°21'212.0
2019-Mar-16 21:30N 51°07' E 001°24'2 4.7
2019-Mar-16 21:01N 51°08' E 001°27'0 0.4
2019-Mar-16 20:30N 51°08' E 001°27'510.7
2019-Mar-16 20:01N 51°05' E 001°34'816.6
2019-Mar-16 19:31N 50°59' E 001°43'5 9.9
2019-Mar-16 19:00N 50°58' E 001°51'0 0.0
2019-Mar-16 18:30N 50°58' E 001°51'0 0.4
2019-Mar-16 18:00N 50°58' E 001°51'918.1
2019-Mar-16 17:30N 50°59' E 001°36'917.9
2019-Mar-16 17:01N 51°04' E 001°24'4 2.8
2019-Mar-16 15:28N 51°07' E 001°21'3 5.5
2019-Mar-16 15:01N 51°07' E 001°25'815.2
2019-Mar-16 14:31N 51°03' E 001°35'917.3
2019-Mar-16 14:00N 50°58' E 001°46'3 6.3
2019-Mar-16 13:30N 50°58' E 001°51'0 0.0
2019-Mar-16 13:00N 50°58' E 001°51'4 8.8
2019-Mar-16 12:30N 50°58' E 001°44'816.6
2019-Mar-16 12:01N 51°03' E 001°33'816.9
2019-Mar-16 11:31N 51°07' E 001°22'1 0.8
2019-Mar-16 10:10N 51°07' E 001°20'1 8.6
2019-Mar-16 10:00N 51°07' E 001°22'2 4.7
2019-Mar-16 09:31N 51°08' E 001°26'2 3.3
2019-Mar-16 09:01N 51°06' E 001°28'815.3
2019-Mar-16 08:31N 51°02' E 001°38'815.7
2019-Mar-16 08:01N 50°58' E 001°49'1 2.6
2019-Mar-16 07:30N 50°58' E 001°51'0 0.0
2019-Mar-16 07:00N 50°58' E 001°51'2 3.7
2019-Mar-16 06:31N 50°58' E 001°48'918.0
2019-Mar-16 06:01N 51°00' E 001°34'816.8
2019-Mar-16 05:31N 51°06' E 001°24'3 2.5
2019-Mar-16 04:23N 51°07' E 001°20'513.0
2019-Mar-16 04:00N 51°06' E 001°27'917.2
2019-Mar-16 03:30N 51°01' E 001°39'815.2
2019-Mar-16 03:00N 50°58' E 001°50'1 1.1
2019-Mar-16 02:30N 50°58' E 001°51'0 0.0
2019-Mar-16 02:00N 50°58' E 001°51'713.5
2019-Mar-16 01:30N 50°58' E 001°40'918.5
2019-Mar-16 01:00N 51°03' E 001°29'7 4.6
2019-Mar-15 23:34N 51°07' E 001°20'0 3.8
2019-Mar-15 23:30N 51°07' E 001°21'917.2
2019-Mar-15 23:00N 51°04' E 001°33'918.2
2019-Mar-15 22:31N 50°58' E 001°45'4 8.0
2019-Mar-15 22:00N 50°58' E 001°51'0 0.0
2019-Mar-15 21:30N 50°58' E 001°51'2 4.5
2019-Mar-15 21:01N 50°58' E 001°47'917.5
2019-Mar-15 20:30N 51°00' E 001°34'917.8
2019-Mar-15 20:00N 51°06' E 001°24'2 1.9
2019-Mar-15 18:47N 51°07' E 001°20'311.9
2019-Mar-15 18:31N 51°07' E 001°25'816.3
2019-Mar-15 18:00N 51°02' E 001°36'815.3
2019-Mar-15 17:30N 50°58' E 001°46'3 5.9
2019-Mar-15 17:00N 50°58' E 001°51'0 0.0
2019-Mar-15 16:30N 50°58' E 001°51'0 0.7
2019-Mar-15 16:00N 50°58' E 001°51'4 7.9
2019-Mar-15 15:30N 50°58' E 001°44'815.9
2019-Mar-15 15:00N 51°02' E 001°33'10 6.0
2019-Mar-15 13:23N 51°07' E 001°20'616.0
2019-Mar-15 13:01N 51°05' E 001°30'917.3
2019-Mar-15 12:31N 51°00' E 001°40'714.0
2019-Mar-15 12:01N 50°58' E 001°51'0 0.1
2019-Mar-15 11:30N 50°58' E 001°51'0 0.0
2019-Mar-15 11:01N 50°58' E 001°51'612.0
2019-Mar-15 10:31N 50°58' E 001°41'918.3
2019-Mar-15 10:01N 51°03' E 001°29'7 4.5
2019-Mar-15 08:29N 51°07' E 001°20'715.5
2019-Mar-15 08:01N 51°05' E 001°31'816.4
2019-Mar-15 07:31N 50°60' E 001°42'612.2
2019-Mar-15 07:00N 50°58' E 001°51'0 0.0
2019-Mar-15 06:30N 50°58' E 001°51'0 0.0
2019-Mar-15 06:00N 50°58' E 001°51'3 6.7
2019-Mar-15 05:31N 50°58' E 001°46'918.4
2019-Mar-15 05:01N 51°01' E 001°32'917.9
2019-Mar-15 04:30N 51°07' E 001°21'0 0.3
2019-Mar-15 03:19N 51°07' E 001°20'514.6
2019-Mar-15 03:01N 51°07' E 001°28'917.7
2019-Mar-15 02:31N 51°01' E 001°39'816.3
2019-Mar-15 02:00N 50°58' E 001°51'0 0.7
2019-Mar-15 01:30N 50°58' E 001°51'0 0.0
2019-Mar-15 01:00N 50°58' E 001°51'5 9.7
2019-Mar-15 00:31N 50°58' E 001°43'918.2
2019-Mar-15 00:00N 51°02' E 001°30'8 6.2
2019-Mar-14 22:39N 51°07' E 001°20'1 9.6
2019-Mar-14 22:30N 51°07' E 001°22'918.5
2019-Mar-14 22:00N 51°03' E 001°35'918.5
2019-Mar-14 21:31N 50°58' E 001°48'2 3.7
2019-Mar-14 21:00N 50°58' E 001°51'0 0.0
2019-Mar-14 20:30N 50°58' E 001°51'4 8.3
2019-Mar-14 20:01N 50°58' E 001°44'817.0
2019-Mar-14 19:31N 51°01' E 001°32'917.4
2019-Mar-14 18:58N 51°07' E 001°21'0 0.2
2019-Mar-14 17:49N 51°07' E 001°20'3 8.4
2019-Mar-14 17:31N 51°07' E 001°24'816.9
2019-Mar-14 17:00N 51°02' E 001°36'816.2
2019-Mar-14 16:30N 50°58' E 001°47'3 5.4
2019-Mar-14 16:00N 50°58' E 001°51'0 0.0
2019-Mar-14 15:30N 50°58' E 001°51'0 0.5
2019-Mar-14 15:00N 50°58' E 001°51'713.0
2019-Mar-14 14:30N 50°59' E 001°40'816.7
2019-Mar-14 14:01N 51°03' E 001°29'7 9.2
2019-Mar-14 13:14N 51°07' E 001°20'0 0.4
2019-Mar-14 12:29N 51°07' E 001°21'714.6
2019-Mar-14 12:01N 51°05' E 001°31'817.0
2019-Mar-14 11:31N 50°60' E 001°42'612.1
2019-Mar-14 11:00N 50°58' E 001°51'0 0.0
2019-Mar-14 10:30N 50°58' E 001°51'0 0.0
2019-Mar-14 10:00N 50°58' E 001°51'3 5.3
2019-Mar-14 09:30N 50°58' E 001°47'815.4
2019-Mar-14 09:01N 51°00' E 001°35'917.7
2019-Mar-14 08:30N 51°06' E 001°24'3 2.0
2019-Mar-14 07:10N 51°07' E 001°21'212.9
2019-Mar-14 07:00N 51°07' E 001°24'4 8.3
2019-Mar-14 06:30N 51°06' E 001°30'917.3
2019-Mar-14 06:00N 51°00' E 001°40'713.9
2019-Mar-14 05:30N 50°58' E 001°51'0 0.3
2019-Mar-14 05:00N 50°58' E 001°51'0 0.0
2019-Mar-14 04:30N 50°58' E 001°51'3 5.8
2019-Mar-14 04:00N 50°58' E 001°46'2 4.9
2019-Mar-14 03:31N 50°58' E 001°43'3 6.9
2019-Mar-14 03:00N 50°59' E 001°37'816.4
2019-Mar-14 02:31N 51°03' E 001°26'5 3.9
2019-Mar-14 01:06N 51°07' E 001°20'113.1
2019-Mar-14 01:00N 51°07' E 001°22'918.0
2019-Mar-14 00:30N 51°02' E 001°34'918.0
2019-Mar-14 00:01N 50°58' E 001°47'2 4.9
2019-Mar-13 23:30N 50°58' E 001°51'0 0.0
2019-Mar-13 23:00N 50°58' E 001°51'3 6.3
2019-Mar-13 22:30N 50°58' E 001°46'917.3
2019-Mar-13 22:01N 51°01' E 001°34'918.8
2019-Mar-13 21:31N 51°07' E 001°21'1 0.8
2019-Mar-13 20:23N 51°07' E 001°20'615.9
2019-Mar-13 20:01N 51°05' E 001°29'918.6
2019-Mar-13 19:30N 50°59' E 001°40'713.4
2019-Mar-13 19:00N 50°58' E 001°51'0 0.0
2019-Mar-13 18:30N 50°58' E 001°51'0 0.0
2019-Mar-13 18:00N 50°58' E 001°51'611.3
2019-Mar-13 17:30N 50°58' E 001°42'1019.4
2019-Mar-13 17:00N 51°04' E 001°29'7 4.5
2019-Mar-13 15:32N 51°07' E 001°20'0 7.3
2019-Mar-13 15:31N 51°07' E 001°21'815.8
2019-Mar-13 15:01N 51°03' E 001°31'816.8
2019-Mar-13 14:31N 50°59' E 001°43'510.3
2019-Mar-13 14:00N 50°58' E 001°51'0 0.0
2019-Mar-13 13:30N 50°58' E 001°51'1 1.4
2019-Mar-13 13:00N 50°58' E 001°50'815.8
2019-Mar-13 12:31N 50°60' E 001°38'918.3
2019-Mar-13 12:01N 51°05' E 001°26'4 3.2
2019-Mar-13 10:41N 51°07' E 001°20'210.2
2019-Mar-13 10:30N 51°07' E 001°23'713.9
2019-Mar-13 10:00N 51°03' E 001°32'917.4
2019-Mar-13 09:30N 50°59' E 001°44'4 8.9
2019-Mar-13 09:00N 50°58' E 001°51'0 0.0
2019-Mar-13 08:30N 50°58' E 001°51'2 4.6
2019-Mar-13 08:01N 50°58' E 001°47'917.4
2019-Mar-13 07:31N 51°00' E 001°34'816.8
2019-Mar-13 07:01N 51°06' E 001°24'3 2.1
2019-Mar-13 05:39N 51°07' E 001°20'0 0.3
2019-Mar-13 05:21N 51°07' E 001°20'310.0
2019-Mar-13 05:01N 51°07' E 001°26'1 1.3
2019-Mar-13 04:31N 51°07' E 001°26'510.2
2019-Mar-13 04:00N 51°04' E 001°34'611.7
2019-Mar-13 03:31N 51°01' E 001°41'611.3
2019-Mar-13 03:00N 50°58' E 001°49'1 1.3
2019-Mar-13 02:01N 50°58' E 001°51'0 0.0
2019-Mar-13 01:30N 50°58' E 001°51'2 4.7
2019-Mar-13 01:01N 50°58' E 001°47'815.7
2019-Mar-13 00:31N 50°60' E 001°35'816.7
2019-Mar-13 00:01N 51°05' E 001°25'4 2.6
2019-Mar-12 22:36N 51°07' E 001°20'1 8.5
2019-Mar-12 22:29N 51°07' E 001°22'816.9
2019-Mar-12 22:01N 51°03' E 001°33'918.1
2019-Mar-12 21:30N 50°58' E 001°45'4 7.9
2019-Mar-12 21:00N 50°58' E 001°51'0 0.0
2019-Mar-12 20:30N 50°58' E 001°51'0 0.0
2019-Mar-12 20:00N 50°58' E 001°51'4 7.8
2019-Mar-12 19:30N 50°58' E 001°45'815.9
2019-Mar-12 19:00N 51°02' E 001°34'917.3
2019-Mar-12 18:30N 51°07' E 001°22'1 0.8
2019-Mar-12 17:08N 51°07' E 001°21'111.9
2019-Mar-12 17:00N 51°07' E 001°23'1 2.5
2019-Mar-12 16:30N 51°07' E 001°25'510.8
2019-Mar-12 16:00N 51°05' E 001°33'815.2
2019-Mar-12 15:31N 51°00' E 001°42'611.7
2019-Mar-12 15:00N 50°58' E 001°51'0 0.2
2019-Mar-12 14:30N 50°58' E 001°51'2 3.4
2019-Mar-12 14:00N 50°58' E 001°48'816.4
2019-Mar-12 13:30N 50°59' E 001°35'714.6
2019-Mar-12 13:00N 51°04' E 001°28'  
Track history (hours):
 
Tides and Currents Weather Stations Pressure Air Temp Water Temp Dewpoint Dewpoint Depression Visibility Wind Speed Wind Dir Waves Ship Positions

Seafrance Rodin

Operator: SeaFrance

Last reported at 2019-Mar-22 11:30 UTC. Time now 2019-Mar-22 11:59 UTC.
Position N 50°59' E 001°37'.

Length 185 m; draft 6 m.

Type: Ship (hazmat cat A). MMSI: 227022800.

Date/timePositionNaut miles runAvg speedWind from/ knotsBaromVisibWave heightAir tempDewpointWater temp
2019-Mar-22 11:30N 50°59' E 001°37'1019.4
2019-Mar-22 11:00N 51°05' E 001°25'4 7.3
2019-Mar-22 10:27N 51°07' E 001°20'0 0.1
2019-Mar-22 09:47N 51°07' E 001°20'2 8.7
2019-Mar-22 09:31N 51°07' E 001°24'816.8
2019-Mar-22 09:01N 51°02' E 001°35'816.8
2019-Mar-22 08:31N 50°58' E 001°46'3 5.7
2019-Mar-22 08:00N 50°58' E 001°51'0 0.0
2019-Mar-22 07:30N 50°58' E 001°51'3 6.3
2019-Mar-22 07:00N 50°58' E 001°46'714.3
2019-Mar-22 06:31N 51°01' E 001°36'816.1
2019-Mar-22 06:00N 51°05' E 001°25'4 3.3
2019-Mar-22 04:52N 51°07' E 001°20'617.6
2019-Mar-22 04:30N 51°06' E 001°30'817.0
2019-Mar-22 04:00N 50°60' E 001°39'815.2
2019-Mar-22 03:31N 50°58' E 001°51'0 0.3
2019-Mar-22 03:00N 50°58' E 001°51'0 0.5
2019-Mar-22 02:30N 50°58' E 001°51'611.9
2019-Mar-22 02:00N 50°58' E 001°41'917.3
2019-Mar-22 01:30N 51°02' E 001°29'8 5.7
2019-Mar-22 00:09N 51°07' E 001°20'211.4
2019-Mar-22 00:01N 51°07' E 001°23'917.9
2019-Mar-21 23:31N 51°02' E 001°35'917.3
2019-Mar-21 23:01N 50°58' E 001°47'3 5.2
2019-Mar-21 22:30N 50°58' E 001°51'0 0.0
2019-Mar-21 22:00N 50°58' E 001°51'2 3.4
2019-Mar-21 21:30N 50°58' E 001°48'612.3
2019-Mar-21 21:01N 50°59' E 001°39'918.6
2019-Mar-21 20:30N 51°04' E 001°27'5 3.5
2019-Mar-21 19:06N 51°07' E 001°20'110.9
2019-Mar-21 18:59N 51°07' E 001°22'919.2
2019-Mar-21 18:30N 51°03' E 001°35'1019.0
2019-Mar-21 18:00N 50°58' E 001°48'2 3.6
2019-Mar-21 17:30N 50°58' E 001°51'0 0.0
2019-Mar-21 17:00N 50°58' E 001°51'2 3.9
2019-Mar-21 16:31N 50°58' E 001°48'816.2
2019-Mar-21 16:00N 51°01' E 001°36'1019.2
2019-Mar-21 15:31N 51°06' E 001°23'2 2.7
2019-Mar-21 14:41N 51°07' E 001°20'0 0.3
2019-Mar-21 14:19N 51°07' E 001°20'515.1
2019-Mar-21 14:00N 51°06' E 001°27'918.8
2019-Mar-21 13:30N 51°01' E 001°40'714.9
2019-Mar-21 13:00N 50°58' E 001°51'0 0.4
2019-Mar-21 12:30N 50°58' E 001°51'0 0.0
2019-Mar-21 12:00N 50°58' E 001°51'510.9
2019-Mar-21 11:30N 50°58' E 001°42'1019.3
2019-Mar-21 11:01N 51°03' E 001°29'7 5.4
2019-Mar-21 09:41N 51°07' E 001°20'314.4
2019-Mar-21 09:30N 51°07' E 001°24'918.6
2019-Mar-21 09:00N 51°02' E 001°37'816.5
2019-Mar-21 08:31N 50°58' E 001°49'1 2.8
2019-Mar-21 08:00N 50°58' E 001°51'0 0.0
2019-Mar-21 07:30N 50°58' E 001°51'3 6.3
2019-Mar-21 07:00N 50°58' E 001°46'815.4
2019-Mar-21 06:31N 51°01' E 001°35'917.6
2019-Mar-21 06:01N 51°06' E 001°23'2 1.8
2019-Mar-21 04:50N 51°07' E 001°21'516.5
2019-Mar-21 04:30N 51°06' E 001°29'816.4
2019-Mar-21 04:01N 51°01' E 001°39'815.5
2019-Mar-21 03:30N 50°58' E 001°51'0 0.7
2019-Mar-21 03:01N 50°58' E 001°51'0 0.0
2019-Mar-21 02:31N 50°58' E 001°51'3 6.6
2019-Mar-21 02:00N 50°58' E 001°46'714.4
2019-Mar-21 01:30N 51°00' E 001°35'917.5
2019-Mar-21 01:01N 51°06' E 001°24'3 2.5
2019-Mar-20 23:50N 51°07' E 001°20'411.8
2019-Mar-20 23:30N 51°06' E 001°26'917.9
2019-Mar-20 23:00N 51°02' E 001°38'815.5
2019-Mar-20 22:30N 50°58' E 001°49'1 2.3
2019-Mar-20 22:00N 50°58' E 001°51'0 0.0
2019-Mar-20 21:30N 50°58' E 001°51'510.4
2019-Mar-20 21:01N 50°58' E 001°43'917.7
2019-Mar-20 20:30N 51°02' E 001°30'8 5.5
2019-Mar-20 19:01N 51°07' E 001°20'917.1
2019-Mar-20 18:30N 51°03' E 001°33'918.6
2019-Mar-20 18:01N 50°58' E 001°45'4 7.9
2019-Mar-20 17:30N 50°58' E 001°51'0 0.0
2019-Mar-20 17:01N 50°58' E 001°51'1 2.3
2019-Mar-20 16:31N 50°58' E 001°49'713.5
2019-Mar-20 16:01N 50°59' E 001°39'816.9
2019-Mar-20 15:31N 51°04' E 001°28'6 4.1
2019-Mar-20 14:09N 51°07' E 001°21'215.8
2019-Mar-20 14:01N 51°07' E 001°24'918.6
2019-Mar-20 13:30N 51°03' E 001°38'917.0
2019-Mar-20 13:00N 50°58' E 001°49'1 2.5
2019-Mar-20 12:30N 50°58' E 001°51'0 0.0
2019-Mar-20 12:00N 50°58' E 001°51'712.8
2019-Mar-20 11:30N 50°58' E 001°41'918.5
2019-Mar-20 11:01N 51°03' E 001°29'7 5.3
2019-Mar-20 09:44N 51°07' E 001°20'2 8.6
2019-Mar-20 09:30N 51°07' E 001°23'918.7
2019-Mar-20 09:00N 51°03' E 001°36'917.6
2019-Mar-20 08:30N 50°58' E 001°48'2 3.2
2019-Mar-20 08:00N 50°58' E 001°51'0 0.0
2019-Mar-20 07:30N 50°58' E 001°51'3 6.8
2019-Mar-20 07:00N 50°58' E 001°46'815.2
2019-Mar-20 06:31N 50°60' E 001°34'917.1
2019-Mar-20 06:01N 51°06' E 001°24'3 3.6
2019-Mar-20 05:09N 51°07' E 001°20'0 0.4
2019-Mar-20 04:44N 51°07' E 001°20'312.3
2019-Mar-20 04:30N 51°07' E 001°25'816.1
2019-Mar-20 04:00N 51°02' E 001°35'815.9
2019-Mar-20 03:30N 50°58' E 001°46'3 5.8
2019-Mar-20 03:00N 50°58' E 001°51'0 0.0
2019-Mar-20 02:30N 50°58' E 001°51'1 2.6
2019-Mar-20 02:00N 50°58' E 001°49'816.1
2019-Mar-20 01:30N 51°00' E 001°37'917.0
2019-Mar-20 01:00N 51°05' E 001°25'4 3.1
2019-Mar-19 23:43N 51°07' E 001°20'210.5
2019-Mar-19 23:30N 51°07' E 001°24'918.6
2019-Mar-19 23:00N 51°02' E 001°36'815.6
2019-Mar-19 22:31N 50°58' E 001°47'3 5.1
2019-Mar-19 22:00N 50°58' E 001°51'0 0.4
2019-Mar-19 21:30N 50°58' E 001°51'917.9
2019-Mar-19 21:01N 50°60' E 001°37'1019.8
2019-Mar-19 20:31N 51°05' E 001°24'3 2.7
2019-Mar-19 19:23N 51°07' E 001°20'617.0
2019-Mar-19 19:00N 51°05' E 001°30'1019.6
2019-Mar-19 18:31N 50°59' E 001°43'510.9
2019-Mar-19 18:00N 50°58' E 001°51'0 0.0
2019-Mar-19 17:30N 50°58' E 001°51'0 1.0
2019-Mar-19 17:01N 50°58' E 001°50'816.3
2019-Mar-19 16:30N 50°59' E 001°37'918.8
2019-Mar-19 16:01N 51°05' E 001°26'4 8.8
2019-Mar-19 15:30N 51°07' E 001°20'0 0.1
2019-Mar-19 14:11N 51°07' E 001°20'315.8
2019-Mar-19 14:00N 51°07' E 001°25'918.1
2019-Mar-19 13:30N 51°03' E 001°37'917.1
2019-Mar-19 13:00N 50°58' E 001°49'1 2.9
2019-Mar-19 12:30N 50°58' E 001°51'0 0.3
2019-Mar-19 12:01N 50°58' E 001°51'713.3
2019-Mar-19 11:30N 50°58' E 001°40'1019.9
2019-Mar-19 11:00N 51°04' E 001°27'6 4.1
2019-Mar-19 09:38N 51°07' E 001°20'1 9.6
2019-Mar-19 09:29N 51°07' E 001°22'816.9
2019-Mar-19 09:01N 51°04' E 001°34'917.9
2019-Mar-19 08:31N 50°58' E 001°45'4 7.6
2019-Mar-19 08:00N 50°58' E 001°51'0 0.0
2019-Mar-19 07:31N 50°58' E 001°51'3 6.7
2019-Mar-19 07:00N 50°58' E 001°46'815.4
2019-Mar-19 06:30N 50°59' E 001°34'816.1
2019-Mar-19 06:00N 51°05' E 001°25'4 3.1
2019-Mar-19 04:44N 51°07' E 001°20'314.6
2019-Mar-19 04:30N 51°07' E 001°25'917.1
2019-Mar-19 04:01N 51°02' E 001°37'816.2
2019-Mar-19 03:31N 50°58' E 001°48'2 3.5
2019-Mar-19 03:00N 50°58' E 001°51'0 0.0
2019-Mar-19 02:30N 50°58' E 001°51'1 2.9
2019-Mar-19 02:00N 50°58' E 001°49'816.1
2019-Mar-19 01:30N 50°58' E 001°36'816.8
2019-Mar-19 01:00N 51°04' E 001°26'5 3.8
2019-Mar-18 23:41N 51°07' E 001°20'210.7
2019-Mar-18 23:31N 51°07' E 001°23'714.9
2019-Mar-18 23:01N 51°05' E 001°34'816.4
2019-Mar-18 22:31N 50°59' E 001°44'5 9.3
2019-Mar-18 22:00N 50°58' E 001°51'0 0.0
2019-Mar-18 21:30N 50°58' E 001°51'4 7.8
2019-Mar-18 21:00N 50°58' E 001°45'917.1
2019-Mar-18 20:30N 51°02' E 001°33'917.4
2019-Mar-18 20:00N 51°07' E 001°22'1 0.9
2019-Mar-18 18:57N 51°07' E 001°20'715.8
2019-Mar-18 18:30N 51°05' E 001°31'918.0
2019-Mar-18 18:00N 50°60' E 001°42'612.0
2019-Mar-18 17:30N 50°58' E 001°51'0 0.0
2019-Mar-18 17:00N 50°58' E 001°51'1 2.2
2019-Mar-18 16:30N 50°58' E 001°49'815.6
2019-Mar-18 16:00N 50°59' E 001°37'816.3
2019-Mar-18 15:31N 51°04' E 001°27'6 5.7
2019-Mar-18 14:33N 51°07' E 001°20'0 0.3
2019-Mar-18 14:15N 51°07' E 001°20'310.9
2019-Mar-18 14:00N 51°07' E 001°24'917.9
2019-Mar-18 13:30N 51°02' E 001°37'817.0
2019-Mar-18 13:00N 50°58' E 001°49'2 3.1
2019-Mar-18 12:30N 50°58' E 001°51'0 0.0
2019-Mar-18 12:00N 50°58' E 001°51'612.6
2019-Mar-18 11:30N 50°58' E 001°41'918.0
2019-Mar-18 11:00N 51°03' E 001°29'7 5.0
2019-Mar-18 09:38N 51°07' E 001°20'1 9.6
2019-Mar-18 09:30N 51°07' E 001°22'917.7
2019-Mar-18 09:01N 51°02' E 001°34'917.4
2019-Mar-18 08:30N 50°58' E 001°46'3 6.3
2019-Mar-18 08:00N 50°58' E 001°51'0 0.0
2019-Mar-18 07:30N 50°58' E 001°51'4 7.5
2019-Mar-18 07:00N 50°58' E 001°45'815.1
2019-Mar-18 06:31N 50°59' E 001°33'816.4
2019-Mar-18 06:00N 51°05' E 001°24'4 2.9
2019-Mar-18 04:48N 51°07' E 001°20'414.1
2019-Mar-18 04:31N 51°06' E 001°26'816.1
2019-Mar-18 04:00N 51°01' E 001°37'816.8
2019-Mar-18 03:31N 50°58' E 001°49'1 2.4
2019-Mar-18 03:00N 50°58' E 001°51'0 0.0
2019-Mar-18 02:30N 50°58' E 001°51'2 3.8
2019-Mar-18 02:00N 50°58' E 001°48'715.0
2019-Mar-18 01:30N 50°59' E 001°36'817.0
2019-Mar-18 01:01N 51°05' E 001°26'5 3.6
2019-Mar-17 23:44N 51°07' E 001°20'312.2
2019-Mar-17 23:30N 51°07' E 001°24'816.2
2019-Mar-17 23:01N 51°02' E 001°35'816.2
2019-Mar-17 22:30N 50°58' E 001°46'3 6.2
2019-Mar-17 22:00N 50°58' E 001°51'0 0.0
2019-Mar-17 21:30N 50°58' E 001°51'611.5
2019-Mar-17 21:00N 50°58' E 001°42'918.8
2019-Mar-17 20:31N 51°02' E 001°28'7 6.2
2019-Mar-17 19:20N 51°07' E 001°20'411.3
2019-Mar-17 19:01N 51°07' E 001°26'815.7
2019-Mar-17 18:31N 51°02' E 001°36'612.0
2019-Mar-17 18:01N 50°59' E 001°44'5 9.1
2019-Mar-17 17:30N 50°58' E 001°51'0 0.0
2019-Mar-17 17:00N 50°58' E 001°51'1 2.0
2019-Mar-17 16:30N 50°58' E 001°49'714.5
2019-Mar-17 16:00N 50°59' E 001°38'815.8
2019-Mar-17 15:30N 51°03' E 001°27'6 4.7
2019-Mar-17 14:12N 51°07' E 001°20'211.9
2019-Mar-17 14:01N 51°07' E 001°24'918.5
2019-Mar-17 13:30N 51°02' E 001°36'816.1
2019-Mar-17 13:01N 50°58' E 001°48'2 4.3
2019-Mar-17 12:31N 50°58' E 001°51'0 0.0
2019-Mar-17 12:00N 50°58' E 001°51'510.0
2019-Mar-17 11:30N 50°58' E 001°43'917.9
2019-Mar-17 11:00N 51°03' E 001°31'8 6.1
2019-Mar-17 09:40N 51°07' E 001°20'211.8
2019-Mar-17 09:31N 51°07' E 001°23'917.5
2019-Mar-17 09:00N 51°03' E 001°36'817.0
2019-Mar-17 08:30N 50°58' E 001°46'3 5.8
2019-Mar-17 08:01N 50°58' E 001°51'0 0.0
2019-Mar-17 07:31N 50°58' E 001°51'0 0.0
2019-Mar-17 07:01N 50°58' E 001°51'0 0.0
2019-Mar-17 06:30N 50°58' E 001°51'0 0.0
2019-Mar-17 06:01N 50°58' E 001°51'0 0.0
2019-Mar-17 05:30N 50°58' E 001°51'0 0.0
2019-Mar-17 05:00N 50°58' E 001°51'0 0.0
2019-Mar-17 04:30N 50°58' E 001°51'0 0.0
2019-Mar-17 04:01N 50°58' E 001°51'0 0.0
2019-Mar-17 03:30N 50°58' E 001°51'0 0.0
2019-Mar-17 03:01N 50°58' E 001°51'0 0.0
2019-Mar-17 02:31N 50°58' E 001°51'0 0.0
2019-Mar-17 02:00N 50°58' E 001°51'0 0.1
2019-Mar-17 01:30N 50°58' E 001°51'0 0.0
2019-Mar-17 01:00N 50°58' E 001°51'0 0.0
2019-Mar-17 00:31N 50°58' E 001°51'713.4
2019-Mar-17 00:00N 50°58' E 001°40'816.9
2019-Mar-16 23:31N 51°03' E 001°29'7 3.7
2019-Mar-16 21:39N 51°07' E 001°21'212.0
2019-Mar-16 21:30N 51°07' E 001°24'2 4.7
2019-Mar-16 21:01N 51°08' E 001°27'0 0.4
2019-Mar-16 20:30N 51°08' E 001°27'510.7
2019-Mar-16 20:01N 51°05' E 001°34'816.6
2019-Mar-16 19:31N 50°59' E 001°43'5 9.9
2019-Mar-16 19:00N 50°58' E 001°51'0 0.0
2019-Mar-16 18:30N 50°58' E 001°51'0 0.4
2019-Mar-16 18:00N 50°58' E 001°51'918.1
2019-Mar-16 17:30N 50°59' E 001°36'917.9
2019-Mar-16 17:01N 51°04' E 001°24'4 2.8
2019-Mar-16 15:28N 51°07' E 001°21'3 5.5
2019-Mar-16 15:01N 51°07' E 001°25'815.2
2019-Mar-16 14:31N 51°03' E 001°35'917.3
2019-Mar-16 14:00N 50°58' E 001°46'3 6.3
2019-Mar-16 13:30N 50°58' E 001°51'0 0.0
2019-Mar-16 13:00N 50°58' E 001°51'4 8.8
2019-Mar-16 12:30N 50°58' E 001°44'816.6
2019-Mar-16 12:01N 51°03' E 001°33'816.9
2019-Mar-16 11:31N 51°07' E 001°22'1 0.8
2019-Mar-16 10:10N 51°07' E 001°20'1 8.6
2019-Mar-16 10:00N 51°07' E 001°22'2 4.7
2019-Mar-16 09:31N 51°08' E 001°26'2 3.3
2019-Mar-16 09:01N 51°06' E 001°28'815.3
2019-Mar-16 08:31N 51°02' E 001°38'815.7
2019-Mar-16 08:01N 50°58' E 001°49'1 2.6
2019-Mar-16 07:30N 50°58' E 001°51'0 0.0
2019-Mar-16 07:00N 50°58' E 001°51'2 3.7
2019-Mar-16 06:31N 50°58' E 001°48'918.0
2019-Mar-16 06:01N 51°00' E 001°34'816.8
2019-Mar-16 05:31N 51°06' E 001°24'3 2.5
2019-Mar-16 04:23N 51°07' E 001°20'513.0
2019-Mar-16 04:00N 51°06' E 001°27'917.2
2019-Mar-16 03:30N 51°01' E 001°39'815.2
2019-Mar-16 03:00N 50°58' E 001°50'1 1.1
2019-Mar-16 02:30N 50°58' E 001°51'0 0.0
2019-Mar-16 02:00N 50°58' E 001°51'713.5
2019-Mar-16 01:30N 50°58' E 001°40'918.5
2019-Mar-16 01:00N 51°03' E 001°29'7 4.6
2019-Mar-15 23:34N 51°07' E 001°20'0 3.8
2019-Mar-15 23:30N 51°07' E 001°21'917.2
2019-Mar-15 23:00N 51°04' E 001°33'918.2
2019-Mar-15 22:31N 50°58' E 001°45'4 8.0
2019-Mar-15 22:00N 50°58' E 001°51'0 0.0
2019-Mar-15 21:30N 50°58' E 001°51'2 4.5
2019-Mar-15 21:01N 50°58' E 001°47'917.5
2019-Mar-15 20:30N 51°00' E 001°34'917.8
2019-Mar-15 20:00N 51°06' E 001°24'2 1.9
2019-Mar-15 18:47N 51°07' E 001°20'311.9
2019-Mar-15 18:31N 51°07' E 001°25'816.3
2019-Mar-15 18:00N 51°02' E 001°36'815.3
2019-Mar-15 17:30N 50°58' E 001°46'3 5.9
2019-Mar-15 17:00N 50°58' E 001°51'0 0.0
2019-Mar-15 16:30N 50°58' E 001°51'0 0.7
2019-Mar-15 16:00N 50°58' E 001°51'4 7.9
2019-Mar-15 15:30N 50°58' E 001°44'815.9
2019-Mar-15 15:00N 51°02' E 001°33'10 6.0
2019-Mar-15 13:23N 51°07' E 001°20'616.0
2019-Mar-15 13:01N 51°05' E 001°30'917.3
2019-Mar-15 12:31N 51°00' E 001°40'714.0
2019-Mar-15 12:01N 50°58' E 001°51'0 0.1
2019-Mar-15 11:30N 50°58' E 001°51'0 0.0
2019-Mar-15 11:01N 50°58' E 001°51'612.0
2019-Mar-15 10:31N 50°58' E 001°41'918.3
2019-Mar-15 10:01N 51°03' E 001°29'7 4.5
2019-Mar-15 08:29N 51°07' E 001°20'715.5
2019-Mar-15 08:01N 51°05' E 001°31'816.4
2019-Mar-15 07:31N 50°60' E 001°42'612.2
2019-Mar-15 07:00N 50°58' E 001°51'0 0.0
2019-Mar-15 06:30N 50°58' E 001°51'0 0.0
2019-Mar-15 06:00N 50°58' E 001°51'3 6.7
2019-Mar-15 05:31N 50°58' E 001°46'918.4
2019-Mar-15 05:01N 51°01' E 001°32'917.9
2019-Mar-15 04:30N 51°07' E 001°21'0 0.3
2019-Mar-15 03:19N 51°07' E 001°20'514.6
2019-Mar-15 03:01N 51°07' E 001°28'917.7
2019-Mar-15 02:31N 51°01' E 001°39'816.3
2019-Mar-15 02:00N 50°58' E 001°51'0 0.7
2019-Mar-15 01:30N 50°58' E 001°51'0 0.0
2019-Mar-15 01:00N 50°58' E 001°51'5 9.7
2019-Mar-15 00:31N 50°58' E 001°43'918.2
2019-Mar-15 00:00N 51°02' E 001°30'8 6.2
2019-Mar-14 22:39N 51°07' E 001°20'1 9.6
2019-Mar-14 22:30N 51°07' E 001°22'918.5
2019-Mar-14 22:00N 51°03' E 001°35'918.5
2019-Mar-14 21:31N 50°58' E 001°48'2 3.7
2019-Mar-14 21:00N 50°58' E 001°51'0 0.0
2019-Mar-14 20:30N 50°58' E 001°51'4 8.3
2019-Mar-14 20:01N 50°58' E 001°44'817.0
2019-Mar-14 19:31N 51°01' E 001°32'917.4
2019-Mar-14 18:58N 51°07' E 001°21'0 0.2
2019-Mar-14 17:49N 51°07' E 001°20'3 8.4
2019-Mar-14 17:31N 51°07' E 001°24'816.9
2019-Mar-14 17:00N 51°02' E 001°36'816.2
2019-Mar-14 16:30N 50°58' E 001°47'3 5.4
2019-Mar-14 16:00N 50°58' E 001°51'0 0.0
2019-Mar-14 15:30N 50°58' E 001°51'0 0.5
2019-Mar-14 15:00N 50°58' E 001°51'713.0
2019-Mar-14 14:30N 50°59' E 001°40'816.7
2019-Mar-14 14:01N 51°03' E 001°29'7 9.2
2019-Mar-14 13:14N 51°07' E 001°20'0 0.4
2019-Mar-14 12:29N 51°07' E 001°21'714.6
2019-Mar-14 12:01N 51°05' E 001°31'817.0
2019-Mar-14 11:31N 50°60' E 001°42'612.1
2019-Mar-14 11:00N 50°58' E 001°51'0 0.0
2019-Mar-14 10:30N 50°58' E 001°51'0 0.0
2019-Mar-14 10:00N 50°58' E 001°51'3 5.3
2019-Mar-14 09:30N 50°58' E 001°47'815.4
2019-Mar-14 09:01N 51°00' E 001°35'917.7
2019-Mar-14 08:30N 51°06' E 001°24'3 2.0
2019-Mar-14 07:10N 51°07' E 001°21'212.9
2019-Mar-14 07:00N 51°07' E 001°24'4 8.3
2019-Mar-14 06:30N 51°06' E 001°30'917.3
2019-Mar-14 06:00N 51°00' E 001°40'713.9
2019-Mar-14 05:30N 50°58' E 001°51'0 0.3
2019-Mar-14 05:00N 50°58' E 001°51'0 0.0
2019-Mar-14 04:30N 50°58' E 001°51'3 5.8
2019-Mar-14 04:00N 50°58' E 001°46'2 4.9
2019-Mar-14 03:31N 50°58' E 001°43'3 6.9
2019-Mar-14 03:00N 50°59' E 001°37'816.4
2019-Mar-14 02:31N 51°03' E 001°26'5 3.9
2019-Mar-14 01:06N 51°07' E 001°20'113.1
2019-Mar-14 01:00N 51°07' E 001°22'918.0
2019-Mar-14 00:30N 51°02' E 001°34'918.0
2019-Mar-14 00:01N 50°58' E 001°47'2 4.9
2019-Mar-13 23:30N 50°58' E 001°51'0 0.0
2019-Mar-13 23:00N 50°58' E 001°51'3 6.3
2019-Mar-13 22:30N 50°58' E 001°46'917.3
2019-Mar-13 22:01N 51°01' E 001°34'918.8
2019-Mar-13 21:31N 51°07' E 001°21'1 0.8
2019-Mar-13 20:23N 51°07' E 001°20'615.9
2019-Mar-13 20:01N 51°05' E 001°29'918.6
2019-Mar-13 19:30N 50°59' E 001°40'713.4
2019-Mar-13 19:00N 50°58' E 001°51'0 0.0
2019-Mar-13 18:30N 50°58' E 001°51'0 0.0
2019-Mar-13 18:00N 50°58' E 001°51'611.3
2019-Mar-13 17:30N 50°58' E 001°42'1019.4
2019-Mar-13 17:00N 51°04' E 001°29'7 4.5
2019-Mar-13 15:32N 51°07' E 001°20'0 7.3
2019-Mar-13 15:31N 51°07' E 001°21'815.8
2019-Mar-13 15:01N 51°03' E 001°31'816.8
2019-Mar-13 14:31N 50°59' E 001°43'510.3
2019-Mar-13 14:00N 50°58' E 001°51'0 0.0
2019-Mar-13 13:30N 50°58' E 001°51'1 1.4
2019-Mar-13 13:00N 50°58' E 001°50'815.8
2019-Mar-13 12:31N 50°60' E 001°38'918.3
2019-Mar-13 12:01N 51°05' E 001°26'4 3.2
2019-Mar-13 10:41N 51°07' E 001°20'210.2
2019-Mar-13 10:30N 51°07' E 001°23'713.9
2019-Mar-13 10:00N 51°03' E 001°32'917.4
2019-Mar-13 09:30N 50°59' E 001°44'4 8.9
2019-Mar-13 09:00N 50°58' E 001°51'0 0.0
2019-Mar-13 08:30N 50°58' E 001°51'2 4.6
2019-Mar-13 08:01N 50°58' E 001°47'917.4
2019-Mar-13 07:31N 51°00' E 001°34'816.8
2019-Mar-13 07:01N 51°06' E 001°24'3 2.1
2019-Mar-13 05:39N 51°07' E 001°20'0 0.3
2019-Mar-13 05:21N 51°07' E 001°20'310.0
2019-Mar-13 05:01N 51°07' E 001°26'1 1.3
2019-Mar-13 04:31N 51°07' E 001°26'510.2
2019-Mar-13 04:00N 51°04' E 001°34'611.7
2019-Mar-13 03:31N 51°01' E 001°41'611.3
2019-Mar-13 03:00N 50°58' E 001°49'1 1.3
2019-Mar-13 02:01N 50°58' E 001°51'0 0.0
2019-Mar-13 01:30N 50°58' E 001°51'2 4.7
2019-Mar-13 01:01N 50°58' E 001°47'815.7
2019-Mar-13 00:31N 50°60' E 001°35'816.7
2019-Mar-13 00:01N 51°05' E 001°25'4 2.6
2019-Mar-12 22:36N 51°07' E 001°20'1 8.5
2019-Mar-12 22:29N 51°07' E 001°22'816.9
2019-Mar-12 22:01N 51°03' E 001°33'918.1
2019-Mar-12 21:30N 50°58' E 001°45'4 7.9
2019-Mar-12 21:00N 50°58' E 001°51'0 0.0
2019-Mar-12 20:30N 50°58' E 001°51'0 0.0
2019-Mar-12 20:00N 50°58' E 001°51'4 7.8
2019-Mar-12 19:30N 50°58' E 001°45'815.9
2019-Mar-12 19:00N 51°02' E 001°34'917.3
2019-Mar-12 18:30N 51°07' E 001°22'1 0.8
2019-Mar-12 17:08N 51°07' E 001°21'111.9
2019-Mar-12 17:00N 51°07' E 001°23'1 2.5
2019-Mar-12 16:30N 51°07' E 001°25'510.8
2019-Mar-12 16:00N 51°05' E 001°33'815.2
2019-Mar-12 15:31N 51°00' E 001°42'611.7
2019-Mar-12 15:00N 50°58' E 001°51'0 0.2
2019-Mar-12 14:30N 50°58' E 001°51'2 3.4
2019-Mar-12 14:00N 50°58' E 001°48'816.4
2019-Mar-12 13:30N 50°59' E 001°35'714.6
2019-Mar-12 13:00N 51°04' E 001°28'  

Dump ship's entire track history